createdAt,value
2023-03-05T00:00:22.098Z,32.65
2023-03-05T00:02:55.246Z,33.13
2023-03-05T00:05:25.793Z,36.20
2023-03-05T00:07:56.608Z,31.73
2023-03-05T00:10:27.202Z,36.97
2023-03-05T00:12:57.808Z,36.72
2023-03-05T00:15:28.398Z,29.15
2023-03-05T00:18:01.522Z,26.35
2023-03-05T00:20:32.150Z,27.67
2023-03-05T00:23:02.841Z,25.02
2023-03-05T00:25:33.426Z,23.30
2023-03-05T00:28:03.966Z,26.88
2023-03-05T00:30:35.342Z,24.88
2023-03-05T00:33:08.809Z,26.05
2023-03-05T00:35:43.393Z,27.80
2023-03-05T00:38:14.738Z,31.53
2023-03-05T00:40:45.342Z,29.50
2023-03-05T00:43:16.217Z,28.58
2023-03-05T00:45:46.724Z,32.67
2023-03-05T00:48:19.950Z,32.65
2023-03-05T00:50:50.474Z,28.13
2023-03-05T00:53:21.217Z,27.00
2023-03-05T00:55:51.917Z,28.98
2023-03-05T00:58:23.910Z,23.95
2023-03-05T01:00:54.429Z,22.98
2023-03-05T01:03:27.641Z,24.55
2023-03-05T01:05:59.576Z,24.33
2023-03-05T01:08:30.843Z,26.30
2023-03-05T01:11:01.463Z,25.75
2023-03-05T01:13:32.276Z,21.92
2023-03-05T01:16:03.597Z,24.45
2023-03-05T01:18:37.651Z,26.58
2023-03-05T01:21:09.051Z,30.60
2023-03-05T01:23:40.350Z,25.13
2023-03-05T01:26:11.018Z,27.00
2023-03-05T01:28:41.570Z,29.10
2023-03-05T01:31:12.876Z,27.17
2023-03-05T01:33:46.140Z,31.38
2023-03-05T01:36:18.588Z,24.17
2023-03-05T01:38:50.704Z,23.63
2023-03-05T01:41:22.240Z,23.00
2023-03-05T01:43:53.569Z,24.10
2023-03-05T01:46:36.741Z,29.85
2023-03-05T01:49:19.329Z,30.40
2023-03-05T01:51:58.017Z,35.80
2023-03-05T01:54:32.164Z,34.10
2023-03-05T01:57:07.962Z,31.38
2023-03-05T01:59:41.084Z,28.33
2023-03-05T02:02:12.283Z,27.77
2023-03-05T02:04:49.324Z,28.02
2023-03-05T02:07:20.652Z,26.33
2023-03-05T02:09:51.928Z,25.55
2023-03-05T02:12:22.642Z,23.67
2023-03-05T02:15:15.004Z,24.17
2023-03-05T02:17:45.505Z,25.90
2023-03-05T02:20:20.849Z,28.55
2023-03-05T02:22:54.171Z,25.75
2023-03-05T02:25:27.728Z,27.77
2023-03-05T02:28:03.122Z,21.15
2023-03-05T02:30:33.816Z,26.13
2023-03-05T02:33:04.502Z,23.45
2023-03-05T02:35:36.041Z,24.55
2023-03-05T02:38:09.983Z,27.40
2023-03-05T02:40:41.586Z,20.80
2023-03-05T02:43:12.986Z,26.17
2023-03-05T02:45:44.484Z,25.98
2023-03-05T02:48:15.049Z,46.38
2023-03-05T02:50:46.724Z,49.85
2023-03-05T02:53:19.810Z,50.90
2023-03-05T02:55:50.925Z,49.30
2023-03-05T02:58:21.739Z,46.10
2023-03-05T03:00:52.392Z,53.08
2023-03-05T03:03:23.009Z,42.53
2023-03-05T03:05:53.883Z,48.88
2023-03-05T03:08:27.142Z,46.85
2023-03-05T03:10:58.113Z,51.88
2023-03-05T03:13:28.743Z,57.25
2023-03-05T03:16:05.780Z,56.17
2023-03-05T03:18:36.871Z,50.22
2023-03-05T03:21:09.356Z,45.13
2023-03-05T03:23:42.441Z,33.67
2023-03-05T03:26:12.957Z,33.28
2023-03-05T03:28:43.895Z,31.60
2023-03-05T03:31:14.780Z,33.40
2023-03-05T03:33:45.534Z,28.00
2023-03-05T03:36:16.312Z,32.10
2023-03-05T03:38:49.507Z,32.35
2023-03-05T03:41:20.113Z,29.63
2023-03-05T03:43:50.724Z,30.70
2023-03-05T03:46:21.454Z,35.65
2023-03-05T03:48:53.606Z,38.65
2023-03-05T03:51:24.155Z,38.55
2023-03-05T03:53:58.059Z,29.73
2023-03-05T03:56:28.661Z,31.05
2023-03-05T03:59:00.220Z,37.55
2023-03-05T04:01:30.823Z,32.38
2023-03-05T04:04:01.363Z,30.60
2023-03-05T04:06:31.977Z,31.33
2023-03-05T04:09:05.126Z,34.20
2023-03-05T04:11:35.679Z,31.95
2023-03-05T04:14:06.533Z,35.28
2023-03-05T04:16:37.176Z,40.70
2023-03-05T04:19:07.740Z,35.60
2023-03-05T04:21:38.332Z,31.98
2023-03-05T04:24:12.233Z,28.92
2023-03-05T04:26:42.766Z,34.13
2023-03-05T04:29:13.234Z,39.08
2023-03-05T04:31:43.742Z,31.02
2023-03-05T04:34:14.378Z,29.38
2023-03-05T04:36:45.005Z,36.70
2023-03-05T04:39:21.153Z,35.58
2023-03-05T04:41:51.690Z,28.75
2023-03-05T04:44:23.500Z,32.58
2023-03-05T04:46:54.123Z,33.72
2023-03-05T04:49:24.676Z,28.95
2023-03-05T04:51:55.224Z,33.30
2023-03-05T04:54:28.386Z,34.63
2023-03-05T04:56:58.927Z,39.55
2023-03-05T04:59:29.491Z,36.88
2023-03-05T05:02:00.184Z,33.97
2023-03-05T05:04:30.756Z,37.78
2023-03-05T05:07:02.568Z,33.72
2023-03-05T05:09:35.827Z,34.90
2023-03-05T05:12:06.594Z,34.10
2023-03-05T05:14:37.537Z,37.25
2023-03-05T05:17:08.214Z,36.17
2023-03-05T05:19:39.121Z,38.97
2023-03-05T05:22:09.784Z,38.97
2023-03-05T05:24:43.050Z,37.42
2023-03-05T05:27:13.741Z,36.58
2023-03-05T05:29:46.589Z,37.75
2023-03-05T05:32:17.260Z,36.80
2023-03-05T05:34:47.796Z,36.63
2023-03-05T05:37:18.308Z,42.22
2023-03-05T05:39:51.590Z,41.40
2023-03-05T05:42:23.046Z,39.47
2023-03-05T05:44:55.617Z,45.95
2023-03-05T05:47:26.373Z,48.53
2023-03-05T05:49:56.877Z,43.25
2023-03-05T05:52:27.620Z,40.88
2023-03-05T05:55:00.767Z,42.45
2023-03-05T05:57:31.366Z,48.67
2023-03-05T06:00:01.829Z,39.38
2023-03-05T06:02:42.401Z,49.67
2023-03-05T06:05:16.570Z,43.60
2023-03-05T06:07:47.064Z,39.70
2023-03-05T06:10:22.673Z,42.42
2023-03-05T06:15:23.296Z,45.80
2023-03-05T06:17:54.872Z,49.67
2023-03-05T06:20:25.422Z,42.42
2023-03-05T06:22:56.020Z,44.42
2023-03-05T06:25:29.201Z,46.28
2023-03-05T06:27:59.964Z,52.60
2023-03-05T06:30:30.494Z,42.13
2023-03-05T06:33:01.154Z,36.58
2023-03-05T06:35:31.718Z,43.78
2023-03-05T06:38:02.254Z,45.65
2023-03-05T06:40:35.423Z,46.42
2023-03-05T06:43:05.966Z,44.80
2023-03-05T06:45:36.534Z,40.47
2023-03-05T06:48:07.626Z,39.40
2023-03-05T06:50:38.581Z,45.88
2023-03-05T06:53:09.182Z,46.05
2023-03-05T06:55:42.642Z,32.42
2023-03-05T06:58:13.256Z,31.73
2023-03-05T07:00:43.736Z,32.33
2023-03-05T07:03:14.345Z,36.28
2023-03-05T07:05:45.598Z,35.65
2023-03-05T07:08:16.045Z,44.83
2023-03-05T07:10:49.157Z,33.90
2023-03-05T07:13:19.614Z,36.13
2023-03-05T07:15:50.112Z,32.88
2023-03-05T07:18:20.717Z,30.13
2023-03-05T07:20:51.394Z,36.35
2023-03-05T07:23:21.777Z,30.73
2023-03-05T07:25:54.833Z,35.95
2023-03-05T07:28:25.417Z,31.92
2023-03-05T07:31:00.588Z,36.05
2023-03-05T07:33:32.245Z,36.38
2023-03-05T07:36:04.632Z,32.45
2023-03-05T07:38:35.362Z,49.95
2023-03-05T07:41:11.059Z,36.92
2023-03-05T07:46:15.698Z,38.40
2023-03-05T07:48:46.839Z,55.70
2023-03-05T07:51:19.321Z,37.00
2023-03-05T07:53:51.594Z,36.15
2023-03-05T07:56:30.093Z,32.83
2023-03-05T07:59:00.661Z,37.28
2023-03-05T08:01:31.494Z,34.95
2023-03-05T08:04:02.269Z,37.03
2023-03-05T08:06:33.391Z,36.72
2023-03-05T08:09:04.125Z,37.75
2023-03-05T08:11:37.305Z,46.72
2023-03-05T08:14:07.834Z,34.38
2023-03-05T08:16:38.861Z,34.67
2023-03-05T08:19:09.700Z,35.00
2023-03-05T08:21:40.650Z,36.10
2023-03-05T08:24:11.981Z,37.60
2023-03-05T08:26:45.629Z,34.72
2023-03-05T08:29:16.138Z,44.08
2023-03-05T08:31:49.062Z,39.33
2023-03-05T08:34:19.553Z,47.53
2023-03-05T08:36:50.699Z,37.60
2023-03-05T08:39:21.985Z,34.90
2023-03-05T08:41:55.338Z,37.35
2023-03-05T08:44:25.759Z,35.50
2023-03-05T08:46:56.485Z,42.95
2023-03-05T08:49:27.512Z,31.13
2023-03-05T08:51:58.058Z,32.60
2023-03-05T08:54:28.562Z,38.53
2023-03-05T08:57:01.827Z,39.00
2023-03-05T08:59:32.616Z,37.15
2023-03-05T09:02:04.254Z,33.10
2023-03-05T09:04:34.845Z,34.80
2023-03-05T09:07:05.405Z,31.40
2023-03-05T09:09:36.238Z,32.53
2023-03-05T09:12:12.123Z,33.42
2023-03-05T09:14:43.056Z,34.42
2023-03-05T09:17:13.578Z,30.92
2023-03-05T09:19:44.247Z,31.98
2023-03-05T09:22:15.513Z,32.20
2023-03-05T09:24:46.034Z,30.77
2023-03-05T09:27:19.223Z,35.67
2023-03-05T09:29:49.830Z,32.05
2023-03-05T09:32:20.430Z,33.00
2023-03-05T09:34:51.003Z,29.90
2023-03-05T09:37:22.339Z,33.60
2023-03-05T09:39:54.238Z,28.63
2023-03-05T09:43:01.453Z,34.30
2023-03-05T09:45:38.631Z,33.50
2023-03-05T09:48:16.634Z,36.60
2023-03-05T09:50:51.374Z,32.65
2023-03-05T09:53:33.350Z,32.22
2023-03-05T09:56:09.074Z,32.88
2023-03-05T09:58:44.334Z,32.45
2023-03-05T10:01:18.695Z,30.42
2023-03-05T10:03:59.985Z,32.05
2023-03-05T10:06:34.653Z,29.70
2023-03-05T10:09:10.202Z,39.10
2023-03-05T10:14:26.861Z,29.70
2023-03-05T10:17:06.373Z,32.92
2023-03-05T10:20:11.776Z,30.20
2023-03-05T10:22:54.843Z,28.75
2023-03-05T10:25:29.716Z,30.38
2023-03-05T10:28:07.556Z,30.42
2023-03-05T10:31:00.074Z,26.60
2023-03-05T10:33:38.435Z,28.13
2023-03-05T10:36:33.288Z,29.85
2023-03-05T10:39:42.555Z,30.55
2023-03-05T10:42:25.301Z,30.35
2023-03-05T10:44:57.882Z,26.13
2023-03-05T10:47:38.915Z,33.25
2023-03-05T10:50:19.553Z,32.72
2023-03-05T10:52:55.720Z,28.52
2023-03-05T10:55:26.620Z,25.02
2023-03-05T10:57:57.231Z,23.60
2023-03-05T11:00:29.812Z,28.13
2023-03-05T11:03:05.053Z,25.65
2023-03-05T11:05:44.211Z,27.80
2023-03-05T11:08:27.963Z,22.58
2023-03-05T11:11:14.545Z,22.55
2023-03-05T11:13:54.916Z,22.45
2023-03-05T11:16:28.236Z,22.52
2023-03-05T11:19:30.161Z,24.52
2023-03-05T11:22:17.706Z,21.30
2023-03-05T11:25:05.711Z,22.35
2023-03-05T11:27:41.958Z,21.73
2023-03-05T11:30:23.185Z,19.17
2023-03-05T11:32:53.707Z,19.67
2023-03-05T11:35:37.619Z,21.13
2023-03-05T11:38:18.228Z,22.92
2023-03-05T11:40:49.987Z,20.33
2023-03-05T11:43:22.596Z,20.55
2023-03-05T11:45:56.795Z,19.38
2023-03-05T11:48:31.650Z,20.63
2023-03-05T11:51:10.864Z,22.50
2023-03-05T11:53:42.423Z,22.63
2023-03-05T11:56:21.946Z,21.33
2023-03-05T11:58:57.874Z,19.55
2023-03-05T12:01:31.338Z,23.15
2023-03-05T12:04:03.156Z,20.83
2023-03-05T12:06:41.123Z,24.17
2023-03-05T12:09:16.904Z,22.20
2023-03-05T12:11:48.179Z,20.95
2023-03-05T12:14:25.386Z,20.67
2023-03-05T12:17:01.650Z,24.33
2023-03-05T12:19:50.787Z,21.85
2023-03-05T12:22:26.359Z,20.80
2023-03-05T12:24:57.000Z,20.40
2023-03-05T12:27:40.387Z,23.13
2023-03-05T12:30:47.429Z,22.50
2023-03-05T12:33:34.764Z,20.42
2023-03-05T12:36:35.183Z,21.48
2023-03-05T12:39:52.968Z,19.42
2023-03-05T12:42:49.090Z,20.40
2023-03-05T12:45:37.658Z,22.27
2023-03-05T12:48:45.550Z,20.80
2023-03-05T12:51:31.995Z,21.58
2023-03-05T12:54:27.847Z,23.40
2023-03-05T12:57:00.042Z,19.70
2023-03-05T12:59:41.221Z,20.80
2023-03-05T13:02:24.606Z,18.23
2023-03-05T13:05:00.454Z,20.02
2023-03-05T13:07:34.254Z,19.38
2023-03-05T13:10:07.800Z,19.83
2023-03-05T13:12:39.732Z,18.30
2023-03-05T13:15:17.620Z,19.77
2023-03-05T13:17:57.494Z,19.90
2023-03-05T13:20:37.972Z,20.55
2023-03-05T13:23:21.284Z,17.50
2023-03-05T13:26:15.656Z,20.17
2023-03-05T13:28:47.358Z,23.10
2023-03-05T13:31:21.459Z,21.58
2023-03-05T13:33:57.250Z,22.08
2023-03-05T13:36:29.585Z,20.58
2023-03-05T13:39:00.810Z,19.00
2023-03-05T13:41:33.995Z,22.83
2023-03-05T13:44:06.216Z,21.10
2023-03-05T13:46:38.826Z,21.15
2023-03-05T13:49:24.645Z,20.08
2023-03-05T13:51:57.611Z,18.92
2023-03-05T13:54:31.044Z,18.70
2023-03-05T13:57:06.671Z,18.52
2023-03-05T13:59:39.432Z,20.92
2023-03-05T14:02:20.962Z,20.38
2023-03-05T14:04:53.407Z,26.52
2023-03-05T14:07:33.138Z,21.08
2023-03-05T14:10:05.819Z,18.77
2023-03-05T14:12:42.972Z,20.60
2023-03-05T14:15:25.084Z,20.27
2023-03-05T14:17:56.586Z,21.33
2023-03-05T14:20:30.451Z,22.27
2023-03-05T14:23:03.261Z,22.92
2023-03-05T14:25:38.317Z,25.08
2023-03-05T14:30:57.668Z,15.82
2023-03-05T14:33:31.683Z,18.20
2023-03-05T14:36:04.274Z,24.13
2023-03-05T14:38:36.597Z,20.88
2023-03-05T14:41:23.509Z,22.50
2023-03-05T14:43:56.603Z,23.52
2023-03-05T14:46:27.481Z,24.73
2023-03-05T14:48:58.341Z,23.45
2023-03-05T14:51:29.538Z,33.05
2023-03-05T14:54:00.209Z,28.85
2023-03-05T14:56:32.014Z,24.42
2023-03-05T14:59:05.275Z,27.58
2023-03-05T15:01:35.980Z,33.67
2023-03-05T15:04:06.563Z,29.45
2023-03-05T15:06:40.197Z,22.25
2023-03-05T15:09:11.207Z,21.38
2023-03-05T15:11:41.638Z,20.58
2023-03-05T15:14:15.393Z,16.08
2023-03-05T15:16:49.077Z,24.02
2023-03-05T15:19:20.639Z,20.98
2023-03-05T15:21:52.033Z,20.23
2023-03-05T15:24:22.581Z,25.40
2023-03-05T15:26:53.100Z,23.35
2023-03-05T15:29:26.198Z,22.25
2023-03-05T15:31:56.832Z,22.05
2023-03-05T15:34:27.482Z,20.35
2023-03-05T15:36:58.597Z,23.15
2023-03-05T15:39:29.239Z,19.67
2023-03-05T15:42:00.278Z,22.23
2023-03-05T15:44:33.430Z,15.95
2023-03-05T15:47:04.003Z,17.27
2023-03-05T15:49:34.565Z,26.10
2023-03-05T15:52:05.085Z,24.35
2023-03-05T15:54:35.707Z,18.58
2023-03-05T15:57:06.580Z,22.08
2023-03-05T15:59:40.002Z,21.13
2023-03-05T16:02:10.920Z,22.65
2023-03-05T16:04:41.487Z,17.77
2023-03-05T16:07:12.963Z,21.27
2023-03-05T16:09:48.277Z,19.17
2023-03-05T16:12:23.272Z,21.38
2023-03-05T16:14:56.541Z,24.30
2023-03-05T16:17:27.763Z,20.38
2023-03-05T16:19:59.368Z,20.17
2023-03-05T16:22:30.865Z,22.98
2023-03-05T16:25:01.620Z,19.52
2023-03-05T16:27:33.960Z,23.23
2023-03-05T16:30:07.987Z,27.52
2023-03-05T16:32:40.211Z,21.58
2023-03-05T16:35:12.518Z,26.75
2023-03-05T16:37:43.568Z,20.13
2023-03-05T16:40:15.860Z,18.77
2023-03-05T16:42:46.812Z,18.92
2023-03-05T16:45:20.245Z,26.83
2023-03-05T16:47:52.630Z,21.33
2023-03-05T16:50:23.726Z,18.85
2023-03-05T16:52:54.506Z,16.05
2023-03-05T16:55:25.187Z,18.88
2023-03-05T16:57:56.105Z,18.75
2023-03-05T17:00:29.717Z,21.13
2023-03-05T17:03:00.242Z,20.58
2023-03-05T17:05:30.919Z,18.15
2023-03-05T17:08:02.418Z,16.90
2023-03-05T17:10:33.350Z,22.85
2023-03-05T17:13:04.007Z,19.33
2023-03-05T17:15:37.387Z,20.65
2023-03-05T17:18:08.782Z,21.40
2023-03-05T17:20:39.748Z,20.80
2023-03-05T17:23:11.329Z,15.35
2023-03-05T17:25:42.279Z,23.25
2023-03-05T17:28:13.590Z,24.23
2023-03-05T17:30:47.367Z,20.23
2023-03-05T17:33:18.109Z,20.60
2023-03-05T17:35:50.254Z,22.85
2023-03-05T17:38:21.203Z,28.70
2023-03-05T17:40:52.482Z,30.90
2023-03-05T17:43:23.236Z,32.40
2023-03-05T17:45:59.989Z,32.83
2023-03-05T17:48:31.615Z,31.75
2023-03-05T17:51:02.293Z,29.23
2023-03-05T17:53:32.973Z,31.65
2023-03-05T17:56:03.659Z,28.05
2023-03-05T17:58:34.622Z,27.83
2023-03-05T18:01:09.145Z,29.17
2023-03-05T18:03:40.222Z,29.02
2023-03-05T18:06:11.047Z,29.42
2023-03-05T18:08:41.774Z,26.83
2023-03-05T18:11:12.492Z,20.77
2023-03-05T18:13:43.521Z,22.77
2023-03-05T18:16:18.498Z,21.60
2023-03-05T18:18:49.140Z,16.10
2023-03-05T18:21:22.999Z,23.67
2023-03-05T18:23:54.419Z,22.58
2023-03-05T18:26:25.456Z,17.73
2023-03-05T18:28:56.490Z,16.23
2023-03-05T18:31:29.858Z,18.92
2023-03-05T18:34:00.587Z,19.92
2023-03-05T18:36:31.333Z,19.65
2023-03-05T18:39:02.023Z,17.77
2023-03-05T18:41:33.890Z,20.23
2023-03-05T18:44:05.127Z,23.67
2023-03-05T18:46:38.613Z,19.52
2023-03-05T18:49:09.698Z,17.05
2023-03-05T18:51:40.506Z,18.42
2023-03-05T18:54:11.412Z,20.55
2023-03-05T18:56:42.478Z,16.77
2023-03-05T18:59:13.143Z,20.25
2023-03-05T19:01:46.634Z,14.75
2023-03-05T19:04:17.271Z,16.77
2023-03-05T19:06:48.349Z,18.40
2023-03-05T19:09:46.160Z,14.80
2023-03-05T19:12:19.739Z,18.67
2023-03-05T19:14:50.348Z,15.40
2023-03-05T19:17:23.630Z,14.10
2023-03-05T19:19:54.847Z,19.55
2023-03-05T19:22:27.079Z,14.18
2023-03-05T19:24:57.738Z,17.55
2023-03-05T19:27:29.318Z,16.48
2023-03-05T19:30:00.397Z,20.45
2023-03-05T19:32:33.683Z,20.80
2023-03-05T19:35:04.856Z,22.50
2023-03-05T19:37:35.411Z,21.92
2023-03-05T19:40:06.330Z,19.33
2023-03-05T19:42:38.292Z,18.50
2023-03-05T19:45:10.333Z,20.15
2023-03-05T19:47:43.529Z,21.17
2023-03-05T19:50:17.849Z,19.63
2023-03-05T19:52:48.501Z,22.42
2023-03-05T19:55:19.222Z,21.60
2023-03-05T19:57:49.895Z,18.17
2023-03-05T20:00:22.133Z,19.45
2023-03-05T20:02:55.309Z,20.70
2023-03-05T20:05:26.792Z,19.65
2023-03-05T20:07:57.529Z,17.17
2023-03-05T20:10:28.105Z,17.85
2023-03-05T20:12:58.949Z,18.13
2023-03-05T20:15:29.958Z,16.08
2023-03-05T20:18:03.185Z,21.17
2023-03-05T20:20:33.935Z,18.10
2023-03-05T20:23:04.604Z,21.48
2023-03-05T20:25:35.308Z,15.43
2023-03-05T20:28:05.832Z,21.55
2023-03-05T20:30:36.440Z,18.63
2023-03-05T20:33:09.702Z,23.50
2023-03-05T20:35:40.504Z,20.30
2023-03-05T20:38:30.429Z,18.92
2023-03-05T20:41:02.649Z,19.55
2023-03-05T20:43:35.262Z,18.35
2023-03-05T20:46:06.874Z,23.83
2023-03-05T20:48:40.260Z,19.50
2023-03-05T20:51:15.669Z,21.73
2023-03-05T20:53:46.480Z,20.17
2023-03-05T20:56:17.090Z,19.13
2023-03-05T20:58:47.936Z,19.15
2023-03-05T21:01:18.780Z,19.92
2023-03-05T21:03:53.940Z,19.75
2023-03-05T21:06:24.525Z,21.88
2023-03-05T21:08:55.341Z,18.38
2023-03-05T21:11:26.562Z,22.15
2023-03-05T21:13:57.274Z,17.80
2023-03-05T21:16:30.033Z,18.95
2023-03-05T21:19:03.741Z,19.73
2023-03-05T21:21:34.419Z,21.35
2023-03-05T21:24:05.266Z,23.67
2023-03-05T21:26:36.313Z,19.63
2023-03-05T21:29:06.938Z,19.13
2023-03-05T21:31:37.742Z,21.80
2023-03-05T21:34:11.153Z,20.95
2023-03-05T21:36:41.668Z,21.08
2023-03-05T21:39:12.337Z,21.52
2023-03-05T21:41:46.401Z,20.15
2023-03-05T21:44:17.931Z,18.13
2023-03-05T21:46:48.406Z,18.70
2023-03-05T21:49:21.607Z,21.48
2023-03-05T21:52:09.403Z,20.30
2023-03-05T21:54:40.556Z,22.88
2023-03-05T21:57:13.074Z,22.60
2023-03-05T21:59:44.434Z,19.25
2023-03-05T22:02:15.407Z,22.83
2023-03-05T22:04:48.870Z,24.63
2023-03-05T22:07:20.888Z,21.17
2023-03-05T22:09:56.566Z,23.15
2023-03-05T22:13:12.498Z,22.40
2023-03-05T22:15:47.504Z,19.20
2023-03-05T22:18:19.987Z,17.45
2023-03-05T22:20:53.418Z,18.63
2023-03-05T22:23:27.403Z,19.50
2023-03-05T22:26:01.800Z,22.15
2023-03-05T22:28:32.795Z,33.85
2023-03-05T22:31:03.620Z,36.95
2023-03-05T22:33:34.921Z,32.22
2023-03-05T22:36:14.994Z,28.73
2023-03-05T22:38:45.792Z,28.65
2023-03-05T22:41:19.905Z,26.05
2023-03-05T22:43:51.648Z,29.98
2023-03-05T22:46:24.226Z,31.95
2023-03-05T22:48:55.225Z,30.08
2023-03-05T22:51:28.450Z,30.55
2023-03-05T22:53:59.298Z,29.58
2023-03-05T22:56:29.799Z,32.75
2023-03-05T22:59:00.560Z,32.22
2023-03-05T23:01:31.133Z,33.47
2023-03-05T23:04:47.829Z,35.00
2023-03-05T23:07:23.500Z,30.80
2023-03-05T23:09:56.063Z,37.05
2023-03-05T23:12:28.196Z,33.63
2023-03-05T23:14:58.952Z,29.55
2023-03-05T23:17:29.917Z,31.08
2023-03-05T23:20:00.400Z,29.05
2023-03-05T23:22:33.794Z,26.63
2023-03-05T23:25:04.526Z,27.63
2023-03-05T23:27:35.298Z,29.50
2023-03-05T23:30:23.242Z,23.83
2023-03-05T23:32:56.026Z,30.23
2023-03-05T23:35:28.847Z,28.20
2023-03-05T23:38:03.644Z,28.05
2023-03-05T23:40:35.840Z,27.45
2023-03-05T23:43:07.292Z,24.15
2023-03-05T23:45:38.264Z,24.95
2023-03-05T23:48:09.312Z,23.85
2023-03-05T23:50:43.235Z,26.85
2023-03-05T23:53:20.259Z,30.35
2023-03-05T23:55:51.381Z,30.38
2023-03-05T23:58:22.710Z,26.42
